createdAt,value
2023-02-06T00:02:07.724Z,99229.41
2023-02-06T00:04:53.297Z,99232.06
2023-02-06T00:07:38.885Z,99245.00
2023-02-06T00:10:24.305Z,99234.78
2023-02-06T00:13:09.814Z,99225.22
2023-02-06T00:15:55.063Z,99229.53
2023-02-06T00:18:40.496Z,99231.28
2023-02-06T00:21:27.299Z,99237.34
2023-02-06T00:24:12.962Z,99237.50
2023-02-06T00:26:58.230Z,99236.75
2023-02-06T00:29:43.526Z,99243.66
2023-02-06T00:32:28.962Z,99242.72
2023-02-06T00:35:14.317Z,99240.13
2023-02-06T00:38:00.837Z,99240.13
2023-02-06T00:40:46.320Z,99237.72
2023-02-06T00:43:32.126Z,99242.03
2023-02-06T00:46:17.952Z,99256.75
2023-02-06T00:49:03.779Z,99245.59
2023-02-06T00:51:49.219Z,99243.78
2023-02-06T00:54:34.513Z,99241.19
2023-02-06T00:57:19.791Z,99243.69
2023-02-06T01:00:08.243Z,99229.13
2023-02-06T01:02:53.597Z,99230.81
2023-02-06T01:05:39.474Z,99226.63
2023-02-06T01:08:25.197Z,99225.81
2023-02-06T01:11:18.974Z,99230.88
2023-02-06T01:14:04.854Z,99227.31
2023-02-06T01:16:50.045Z,99223.03
2023-02-06T01:19:38.147Z,99223.84
2023-02-06T01:22:25.184Z,99226.50
2023-02-06T01:25:10.441Z,99216.22
2023-02-06T01:27:57.341Z,99223.16
2023-02-06T01:30:42.768Z,99224.81
2023-02-06T01:33:28.034Z,99231.66
2023-02-06T01:36:14.978Z,99226.50
2023-02-06T01:39:00.221Z,99226.63
2023-02-06T01:41:46.520Z,99231.78
2023-02-06T01:44:33.065Z,99232.78
2023-02-06T01:47:18.287Z,99233.63
2023-02-06T01:50:04.268Z,99235.34
2023-02-06T01:52:51.079Z,99215.69
2023-02-06T01:55:38.703Z,99225.25
2023-02-06T01:58:35.721Z,99233.13
2023-02-06T02:01:22.097Z,99228.06
2023-02-06T02:04:13.154Z,99235.84
2023-02-06T02:07:13.918Z,99241.91
2023-02-06T02:10:02.944Z,99233.47
2023-02-06T02:12:48.751Z,99230.97
2023-02-06T02:15:59.640Z,99235.59
2023-02-06T02:19:42.710Z,99238.22
2023-02-06T02:22:46.279Z,99249.38
2023-02-06T02:25:56.361Z,99247.63
2023-02-06T02:28:51.111Z,99238.16
2023-02-06T02:31:45.492Z,99245.94
2023-02-06T02:34:40.104Z,99259.00
2023-02-06T02:37:55.312Z,99260.66
2023-02-06T02:40:58.468Z,99257.25
2023-02-06T02:43:51.515Z,99259.00
2023-02-06T02:46:44.928Z,99255.63
2023-02-06T02:49:34.391Z,99251.47
2023-02-06T02:52:20.147Z,99254.13
2023-02-06T02:55:22.342Z,99254.13
2023-02-06T02:58:16.641Z,99258.41
2023-02-06T03:01:06.096Z,99263.66
2023-02-06T03:03:56.460Z,99261.97
2023-02-06T03:06:56.242Z,99255.09
2023-02-06T03:09:45.963Z,99251.66
2023-02-06T03:12:53.677Z,99254.25
2023-02-06T03:16:00.192Z,99263.03
2023-02-06T03:19:11.141Z,99261.50
2023-02-06T03:21:57.400Z,99249.63
2023-02-06T03:24:43.027Z,99245.59
2023-02-06T03:27:30.375Z,99244.84
2023-02-06T03:30:19.294Z,99247.41
2023-02-06T03:33:07.580Z,99239.75
2023-02-06T03:35:56.904Z,99238.00
2023-02-06T03:38:42.231Z,99236.31
2023-02-06T03:41:32.829Z,99232.03
2023-02-06T03:44:24.572Z,99231.25
2023-02-06T03:47:11.776Z,99224.41
2023-02-06T03:50:00.371Z,99215.88
2023-02-06T03:52:49.200Z,99198.81
2023-02-06T03:55:36.609Z,99197.13
2023-02-06T03:58:24.497Z,99197.13
2023-02-06T04:01:11.534Z,99197.19
2023-02-06T04:03:58.502Z,99193.78
2023-02-06T04:06:44.472Z,99188.78
2023-02-06T04:09:30.136Z,99175.94
2023-02-06T04:12:16.061Z,99175.19
2023-02-06T04:15:01.718Z,99177.81
2023-02-06T04:17:59.524Z,99179.56
2023-02-06T04:20:46.345Z,99175.50
2023-02-06T04:23:31.931Z,99175.66
2023-02-06T04:26:17.634Z,99183.47
2023-02-06T04:29:03.126Z,99173.97
2023-02-06T04:31:48.606Z,99167.31
2023-02-06T04:34:36.158Z,99175.97
2023-02-06T04:37:21.330Z,99171.75
2023-02-06T04:40:07.150Z,99168.25
2023-02-06T04:42:52.952Z,99161.47
2023-02-06T04:45:38.566Z,99161.47
2023-02-06T04:48:24.295Z,99160.59
2023-02-06T04:51:09.860Z,99150.47
2023-02-06T04:53:55.700Z,99148.00
2023-02-06T04:56:41.488Z,99151.47
2023-02-06T04:59:27.130Z,99151.47
2023-02-06T05:02:12.530Z,99143.75
2023-02-06T05:04:57.596Z,99144.44
2023-02-06T05:07:42.959Z,99145.22
2023-02-06T05:10:28.377Z,99158.94
2023-02-06T05:13:14.430Z,99163.25
2023-02-06T05:16:11.721Z,99160.59
2023-02-06T05:18:57.245Z,99160.47
2023-02-06T05:21:42.704Z,99170.63
2023-02-06T05:24:28.121Z,99171.41
2023-02-06T05:27:13.381Z,99168.06
2023-02-06T05:29:58.580Z,99167.22
2023-02-06T05:32:44.297Z,99176.75
2023-02-06T05:35:29.939Z,99185.38
2023-02-06T05:38:15.625Z,99182.06
2023-02-06T05:41:01.508Z,99192.41
2023-02-06T05:43:46.809Z,99194.22
2023-02-06T05:46:32.244Z,99208.78
2023-02-06T05:49:17.720Z,99207.09
2023-02-06T05:52:02.994Z,99212.31
2023-02-06T05:54:48.288Z,99195.25
2023-02-06T05:57:33.575Z,99204.56
2023-02-06T06:00:19.223Z,99206.41
2023-02-06T06:03:05.098Z,99216.69
2023-02-06T06:05:50.702Z,99208.13
2023-02-06T06:08:36.126Z,99208.19
2023-02-06T06:11:21.760Z,99204.94
2023-02-06T06:14:07.395Z,99204.16
2023-02-06T06:16:52.909Z,99201.66
2023-02-06T06:19:38.328Z,99203.47
2023-02-06T06:22:23.554Z,99201.84
2023-02-06T06:25:08.902Z,99206.09
2023-02-06T06:27:54.232Z,99200.97
2023-02-06T06:30:39.518Z,99188.97
2023-02-06T06:33:24.795Z,99187.19
2023-02-06T06:36:14.303Z,99194.78
2023-02-06T06:38:59.702Z,99177.59
2023-02-06T06:41:45.093Z,99181.78
2023-02-06T06:44:31.599Z,99178.22
2023-02-06T06:47:17.390Z,99178.97
2023-02-06T06:50:03.168Z,99183.16
2023-02-06T06:52:48.516Z,99177.88
2023-02-06T06:55:37.028Z,99191.50
2023-02-06T06:58:23.041Z,99192.34
2023-02-06T07:01:08.963Z,99185.34
2023-02-06T07:03:54.177Z,99180.03
2023-02-06T07:06:40.628Z,99185.06
2023-02-06T07:09:26.341Z,99191.81
2023-02-06T07:12:12.035Z,99200.16
2023-02-06T07:14:57.462Z,99207.56
2023-02-06T07:17:42.757Z,99197.81
2023-02-06T07:20:28.326Z,99192.25
2023-02-06T07:23:13.951Z,99196.09
2023-02-06T07:26:02.354Z,99198.94
2023-02-06T07:28:49.756Z,99202.53
2023-02-06T07:31:37.367Z,99197.50
2023-02-06T07:34:22.673Z,99187.34
2023-02-06T07:37:08.080Z,99189.19
2023-02-06T07:39:53.272Z,99184.13
2023-02-06T07:42:40.198Z,99191.03
2023-02-06T07:45:38.360Z,99188.44
2023-02-06T07:48:23.903Z,99190.31
2023-02-06T07:51:10.211Z,99186.44
2023-02-06T07:53:55.621Z,99175.59
2023-02-06T07:56:41.184Z,99186.16
2023-02-06T07:59:26.724Z,99177.88
2023-02-06T08:02:12.677Z,99174.88
2023-02-06T08:05:00.642Z,99174.38
2023-02-06T08:07:45.871Z,99180.78
2023-02-06T08:10:31.413Z,99163.22
2023-02-06T08:13:16.990Z,99161.03
2023-02-06T08:16:11.773Z,99160.53
2023-02-06T08:18:57.020Z,99151.41
2023-02-06T08:21:42.364Z,99155.31
2023-02-06T08:24:27.884Z,99157.56
2023-02-06T08:27:13.273Z,99157.06
2023-02-06T08:29:59.394Z,99144.44
2023-02-06T08:32:44.956Z,99145.81
2023-02-06T08:35:30.370Z,99149.66
2023-02-06T08:38:15.764Z,99150.03
2023-02-06T08:41:01.243Z,99150.25
2023-02-06T08:43:47.973Z,99159.22
2023-02-06T08:46:33.812Z,99154.50
2023-02-06T08:49:22.060Z,99150.72
2023-02-06T08:52:07.562Z,99152.75
2023-02-06T08:54:53.016Z,99151.56
2023-02-06T08:57:38.510Z,99152.31
2023-02-06T09:00:23.892Z,99145.09
2023-02-06T09:03:09.074Z,99145.47
2023-02-06T09:06:09.612Z,99149.38
2023-02-06T09:08:56.657Z,99156.00
2023-02-06T09:11:43.109Z,99163.63
2023-02-06T09:14:29.426Z,99160.81
2023-02-06T09:17:14.726Z,99165.63
2023-02-06T09:20:01.296Z,99158.22
2023-02-06T09:22:46.548Z,99154.31
2023-02-06T09:25:31.759Z,99159.78
2023-02-06T09:28:17.989Z,99152.97
2023-02-06T09:31:03.741Z,99160.34
2023-02-06T09:33:49.727Z,99153.47
2023-02-06T09:36:36.799Z,99144.16
2023-02-06T09:39:22.276Z,99139.41
2023-02-06T09:42:18.467Z,99137.97
2023-02-06T09:45:17.122Z,99127.91
2023-02-06T09:48:05.448Z,99113.81
2023-02-06T09:51:05.555Z,99113.47
2023-02-06T09:54:05.924Z,99103.72
2023-02-06T09:57:02.107Z,99096.06
2023-02-06T10:00:04.279Z,99088.47
2023-02-06T10:03:19.371Z,99085.06
2023-02-06T10:06:22.607Z,99087.94
2023-02-06T10:09:14.708Z,99088.13
2023-02-06T10:12:09.417Z,99088.31
2023-02-06T10:15:02.830Z,99097.28
2023-02-06T10:17:58.454Z,99093.91
2023-02-06T10:20:53.057Z,99088.06
2023-02-06T10:24:19.529Z,99093.22
2023-02-06T10:27:11.633Z,99099.47
2023-02-06T10:29:56.843Z,99091.81
2023-02-06T10:32:49.427Z,99098.13
2023-02-06T10:35:58.834Z,99092.47
2023-02-06T10:39:13.738Z,99084.22
2023-02-06T10:42:15.292Z,99073.25
2023-02-06T10:45:20.284Z,99060.16
2023-02-06T10:48:29.288Z,99058.31
2023-02-06T10:51:35.525Z,99055.50
2023-02-06T10:54:38.475Z,99050.31
2023-02-06T10:57:28.635Z,99036.81
2023-02-06T11:00:27.448Z,99046.56
2023-02-06T11:03:17.483Z,99033.25
2023-02-06T11:06:03.070Z,99037.28
2023-02-06T11:08:49.009Z,99032.66
2023-02-06T11:11:46.702Z,99028.03
2023-02-06T11:14:38.919Z,99016.91
2023-02-06T11:17:28.211Z,99027.59
2023-02-06T11:20:35.537Z,99038.00
2023-02-06T11:23:23.558Z,99024.59
2023-02-06T11:26:19.323Z,99025.19
2023-02-06T11:29:20.378Z,99019.03
2023-02-06T11:32:08.715Z,99019.47
2023-02-06T11:34:59.220Z,99029.66
2023-02-06T11:37:44.901Z,99029.88
2023-02-06T11:40:30.159Z,99041.38
2023-02-06T11:43:26.012Z,99046.94
2023-02-06T11:46:16.197Z,99048.09
2023-02-06T11:49:29.165Z,99044.56
2023-02-06T11:52:30.324Z,99031.78
2023-02-06T11:55:29.661Z,99038.53
2023-02-06T11:58:14.895Z,99041.72
2023-02-06T12:01:04.426Z,99018.25
2023-02-06T12:03:49.930Z,99016.44
2023-02-06T12:06:39.498Z,99004.22
2023-02-06T12:09:25.162Z,99003.25
2023-02-06T12:12:25.432Z,99001.88
2023-02-06T12:15:36.231Z,98999.38
2023-02-06T12:18:24.007Z,98995.34
2023-02-06T12:21:47.720Z,98995.06
2023-02-06T12:24:38.928Z,98996.84
2023-02-06T12:27:39.042Z,98986.66
2023-02-06T12:30:28.109Z,98983.22
2023-02-06T12:33:34.072Z,98979.53
2023-02-06T12:36:34.192Z,98980.78
2023-02-06T12:39:22.330Z,98972.38
2023-02-06T12:42:26.185Z,98974.72
2023-02-06T12:45:39.878Z,98965.91
2023-02-06T12:48:41.569Z,98969.38
2023-02-06T12:51:34.821Z,98971.72
2023-02-06T12:54:33.710Z,98974.09
2023-02-06T12:57:24.001Z,98972.69
2023-02-06T13:00:30.676Z,98965.69
2023-02-06T13:03:49.074Z,98950.69
2023-02-06T13:06:55.376Z,98950.59
2023-02-06T13:09:48.740Z,98954.53
2023-02-06T13:12:34.969Z,98961.66
2023-02-06T13:15:27.349Z,98964.03
2023-02-06T13:18:34.688Z,98970.69
2023-02-06T13:21:25.133Z,98964.09
2023-02-06T13:24:16.169Z,98960.03
2023-02-06T13:27:08.296Z,98952.34
2023-02-06T13:29:54.116Z,98952.22
2023-02-06T13:32:46.142Z,98953.88
2023-02-06T13:35:31.769Z,98947.84
2023-02-06T13:38:23.138Z,98946.03
2023-02-06T13:41:14.847Z,98940.97
2023-02-06T13:44:17.770Z,98937.91
2023-02-06T13:47:18.594Z,98945.84
2023-02-06T13:50:22.919Z,98941.69
2023-02-06T13:53:30.932Z,98949.91
2023-02-06T13:56:34.910Z,98952.06
2023-02-06T13:59:28.337Z,98953.28
2023-02-06T14:02:30.159Z,98949.72
2023-02-06T14:05:22.198Z,98963.84
2023-02-06T14:08:40.121Z,98965.88
2023-02-06T14:11:56.779Z,98963.34
2023-02-06T14:15:10.460Z,98962.66
2023-02-06T14:17:59.064Z,98968.84
2023-02-06T14:21:02.456Z,98967.31
2023-02-06T14:24:11.083Z,98964.94
2023-02-06T14:27:18.216Z,98970.41
2023-02-06T14:30:18.940Z,98971.72
2023-02-06T14:33:07.352Z,98971.13
2023-02-06T14:36:09.577Z,98974.00
2023-02-06T14:39:27.133Z,98979.22
2023-02-06T14:42:35.971Z,98976.84
2023-02-06T14:45:41.714Z,98973.41
2023-02-06T14:48:38.469Z,98984.78
2023-02-06T14:51:36.522Z,98981.31
2023-02-06T14:54:36.608Z,98971.97
2023-02-06T14:57:27.768Z,98974.94
2023-02-06T15:00:18.391Z,98970.91
2023-02-06T15:03:17.480Z,98963.34
2023-02-06T15:06:10.329Z,98960.03
2023-02-06T15:08:55.856Z,98969.59
2023-02-06T15:11:41.845Z,98970.69
2023-02-06T15:14:30.526Z,98980.44
2023-02-06T15:17:21.469Z,98982.31
2023-02-06T15:20:25.511Z,98992.03
2023-02-06T15:23:28.011Z,98987.88
2023-02-06T15:26:19.606Z,98990.63
2023-02-06T15:29:15.598Z,98994.16
2023-02-06T15:32:25.847Z,99001.25
2023-02-06T15:35:40.081Z,99004.13
2023-02-06T15:38:29.195Z,99004.25
2023-02-06T15:41:15.051Z,99000.09
2023-02-06T15:44:11.955Z,99002.00
2023-02-06T15:46:58.738Z,98999.59
2023-02-06T15:49:47.132Z,98991.09
2023-02-06T15:52:47.080Z,99001.75
2023-02-06T15:55:36.505Z,99005.41
2023-02-06T15:58:24.779Z,99002.09
2023-02-06T16:01:18.453Z,99010.84
2023-02-06T16:04:18.596Z,99013.56
2023-02-06T16:07:23.670Z,99024.25
2023-02-06T16:10:09.320Z,99027.78
2023-02-06T16:12:57.380Z,99033.00
2023-02-06T16:16:01.843Z,99039.28
2023-02-06T16:18:51.834Z,99047.91
2023-02-06T16:21:42.184Z,99044.47
2023-02-06T16:24:28.092Z,99050.50
2023-02-06T16:27:25.917Z,99050.63
2023-02-06T16:30:20.407Z,99049.09
2023-02-06T16:33:37.615Z,99069.22
2023-02-06T16:36:24.145Z,99080.56
2023-02-06T16:39:09.446Z,99083.28
2023-02-06T16:41:54.863Z,99087.69
2023-02-06T16:44:45.346Z,99088.63
2023-02-06T16:47:31.545Z,99089.44
2023-02-06T16:50:17.767Z,99079.16
2023-02-06T16:53:03.562Z,99074.75
2023-02-06T16:55:50.121Z,99073.09
2023-02-06T16:58:36.043Z,99082.69
2023-02-06T17:01:25.586Z,99075.81
2023-02-06T17:04:11.104Z,99085.41
2023-02-06T17:06:57.134Z,99094.19
2023-02-06T17:09:44.243Z,99100.31
2023-02-06T17:12:30.698Z,99096.91
2023-02-06T17:15:18.914Z,99104.00
2023-02-06T17:18:04.826Z,99111.19
2023-02-06T17:20:53.120Z,99113.19
2023-02-06T17:23:38.577Z,99116.97
2023-02-06T17:26:24.717Z,99112.91
2023-02-06T17:29:14.207Z,99120.97
2023-02-06T17:32:00.775Z,99119.41
2023-02-06T17:34:48.602Z,99117.03
2023-02-06T17:37:34.274Z,99118.31
2023-02-06T17:40:24.800Z,99128.44
2023-02-06T17:43:10.846Z,99128.88
2023-02-06T17:45:56.619Z,99139.84
2023-02-06T17:48:43.266Z,99136.00
2023-02-06T17:51:29.075Z,99137.38
2023-02-06T17:54:14.433Z,99149.88
2023-02-06T17:56:59.772Z,99152.06
2023-02-06T17:59:45.143Z,99143.88
2023-02-06T18:02:30.504Z,99151.97
2023-02-06T18:05:16.022Z,99147.19
2023-02-06T18:08:01.603Z,99154.56
2023-02-06T18:10:47.073Z,99152.41
2023-02-06T18:13:32.895Z,99155.53
2023-02-06T18:16:20.633Z,99160.28
2023-02-06T18:19:06.386Z,99158.13
2023-02-06T18:21:52.061Z,99157.59
2023-02-06T18:24:37.789Z,99161.22
2023-02-06T18:27:23.298Z,99160.59
2023-02-06T18:30:09.881Z,99166.72
2023-02-06T18:32:55.386Z,99173.09
2023-02-06T18:35:44.397Z,99174.13
2023-02-06T18:38:30.165Z,99176.91
2023-02-06T18:41:34.996Z,99175.34
2023-02-06T18:44:20.332Z,99177.22
2023-02-06T18:47:05.840Z,99172.13
2023-02-06T18:49:51.452Z,99182.50
2023-02-06T18:52:37.050Z,99177.41
2023-02-06T18:55:22.915Z,99174.94
2023-02-06T18:58:08.643Z,99175.13
2023-02-06T19:00:54.383Z,99183.94
2023-02-06T19:03:40.744Z,99183.31
2023-02-06T19:06:31.774Z,99192.16
2023-02-06T19:09:20.258Z,99184.66
2023-02-06T19:12:06.620Z,99172.69
2023-02-06T19:14:52.072Z,99160.84
2023-02-06T19:17:38.206Z,99161.88
2023-02-06T19:20:23.728Z,99175.97
2023-02-06T19:23:09.022Z,99187.28
2023-02-06T19:25:54.422Z,99186.59
2023-02-06T19:28:41.237Z,99189.25
2023-02-06T19:31:27.031Z,99191.25
2023-02-06T19:34:15.662Z,99181.97
2023-02-06T19:37:01.109Z,99167.53
2023-02-06T19:39:46.432Z,99163.25
2023-02-06T19:42:31.968Z,99163.44
2023-02-06T19:45:17.325Z,99162.91
2023-02-06T19:48:02.838Z,99153.66
2023-02-06T19:50:49.400Z,99151.34
2023-02-06T19:53:35.551Z,99157.88
2023-02-06T19:56:26.936Z,99159.19
2023-02-06T19:59:18.431Z,99153.66
2023-02-06T20:02:04.167Z,99161.19
2023-02-06T20:04:49.620Z,99165.25
2023-02-06T20:07:35.003Z,99165.19
2023-02-06T20:10:23.635Z,99177.22
2023-02-06T20:13:09.230Z,99172.84
2023-02-06T20:15:54.860Z,99179.53
2023-02-06T20:18:40.061Z,99179.50
2023-02-06T20:21:36.484Z,99175.84
2023-02-06T20:24:24.568Z,99165.78
2023-02-06T20:27:12.444Z,99168.63
2023-02-06T20:29:57.912Z,99170.56
2023-02-06T20:32:43.304Z,99176.09
2023-02-06T20:35:28.818Z,99192.81
2023-02-06T20:38:14.140Z,99192.25
2023-02-06T20:40:59.525Z,99199.63
2023-02-06T20:43:47.911Z,99190.72
2023-02-06T20:46:33.885Z,99196.13
2023-02-06T20:49:26.106Z,99193.78
2023-02-06T20:52:11.845Z,99190.63
2023-02-06T20:54:57.569Z,99202.00
2023-02-06T20:57:43.347Z,99217.69
2023-02-06T21:00:29.292Z,99228.13
2023-02-06T21:03:15.074Z,99230.88
2023-02-06T21:06:00.774Z,99237.06
2023-02-06T21:08:47.880Z,99239.81
2023-02-06T21:11:38.706Z,99252.25
2023-02-06T21:14:25.412Z,99251.72
2023-02-06T21:17:11.386Z,99254.63
2023-02-06T21:19:56.648Z,99265.31
2023-02-06T21:22:42.338Z,99273.38
2023-02-06T21:25:27.939Z,99281.28
2023-02-06T21:28:13.290Z,99277.28
2023-02-06T21:31:01.227Z,99279.88
2023-02-06T21:33:47.790Z,99271.63
2023-02-06T21:36:35.203Z,99281.69
2023-02-06T21:39:25.113Z,99285.34
2023-02-06T21:42:11.512Z,99284.59
2023-02-06T21:44:57.190Z,99288.06
2023-02-06T21:47:42.340Z,99293.41
2023-02-06T21:50:27.686Z,99300.41
2023-02-06T21:53:12.886Z,99301.38
2023-02-06T21:55:59.209Z,99309.28
2023-02-06T21:58:45.379Z,99306.88
2023-02-06T22:01:33.509Z,99313.94
2023-02-06T22:04:18.969Z,99314.97
2023-02-06T22:07:04.524Z,99325.47
2023-02-06T22:09:49.929Z,99326.56
2023-02-06T22:12:35.592Z,99331.03
2023-02-06T22:15:21.264Z,99348.47
2023-02-06T22:18:10.237Z,99357.28
2023-02-06T22:21:14.328Z,99352.28
2023-02-06T22:24:05.485Z,99353.22
2023-02-06T22:26:51.202Z,99361.97
2023-02-06T22:29:36.499Z,99368.13
2023-02-06T22:32:21.865Z,99388.84
2023-02-06T22:35:07.213Z,99388.94
2023-02-06T22:37:52.720Z,99390.66
2023-02-06T22:40:38.307Z,99394.91
2023-02-06T22:43:23.705Z,99399.25
2023-02-06T22:46:17.215Z,99414.75
2023-02-06T22:49:04.524Z,99416.44
2023-02-06T22:51:52.671Z,99416.28
2023-02-06T22:54:38.212Z,99413.41
2023-02-06T22:57:27.726Z,99401.88
2023-02-06T23:00:18.423Z,99397.13
2023-02-06T23:03:04.665Z,99382.91
2023-02-06T23:05:49.958Z,99391.13
2023-02-06T23:08:36.934Z,99386.75
2023-02-06T23:11:23.178Z,99379.91
2023-02-06T23:14:10.643Z,99379.13
2023-02-06T23:16:56.902Z,99375.03
2023-02-06T23:19:42.292Z,99382.00
2023-02-06T23:22:27.523Z,99378.81
2023-02-06T23:25:15.947Z,99370.28
2023-02-06T23:28:01.772Z,99382.44
2023-02-06T23:30:47.209Z,99381.75
2023-02-06T23:33:32.930Z,99406.13
2023-02-06T23:36:20.544Z,99411.50
2023-02-06T23:39:06.468Z,99391.03
2023-02-06T23:41:51.829Z,99362.97
2023-02-06T23:44:37.145Z,99354.72
2023-02-06T23:47:22.745Z,99371.28
2023-02-06T23:50:08.612Z,99368.09
2023-02-06T23:52:54.418Z,99369.97
2023-02-06T23:55:40.039Z,99362.31
2023-02-06T23:58:25.844Z,99347.09
